Time;durP1;ratioP1;P1;durP2;ratioP2;P2;SDS_P1;SDS_P2;PMS_P1;PMS_P2;Temp;Humidity;BMP_temperature;BMP_pressure;BME280_temperature;BME280_humidity;BME280_pressure;Samples;Min_cycle;Max_cycle;Signal;HPM_P1;HPM_P2
2023/03/21 00:00:13;;;;;;;20.50;9.63;;;;;;;9.26;100.00;101663.91;4940989;28;20031;-92
2023/03/21 00:02:39;;;;;;;21.85;8.77;;;;;;;9.23;100.00;101661.31;4940711;28;20027;-93
2023/03/21 00:05:29;;;;;;;18.60;9.75;;;;;;;9.18;100.00;101648.41;4940644;28;20026;-93
2023/03/21 00:07:58;;;;;;;20.92;9.65;;;;;;;9.16;100.00;101644.09;4956946;28;21081;-92
2023/03/21 00:10:46;;;;;;;21.77;9.50;;;;;;;9.16;100.00;101644.09;4941846;28;20452;-91
2023/03/21 00:13:14;;;;;;;21.08;10.23;;;;;;;9.26;100.00;101659.59;4936385;28;20035;-94
2023/03/21 00:15:56;;;;;;;21.65;8.80;;;;;;;9.20;100.00;101649.28;4938907;28;20510;-92
2023/03/21 00:18:26;;;;;;;22.10;9.82;;;;;;;9.17;100.00;101636.34;4939657;28;20038;-93
2023/03/21 00:28:36;;;;;;;20.25;9.80;;;;;;;9.15;100.00;101632.03;4857130;29;20036;-92
2023/03/21 00:31:09;;;;;;;20.88;10.15;;;;;;;9.17;100.00;101632.91;4866278;29;20052;-92
2023/03/21 00:33:36;;;;;;;22.27;10.33;;;;;;;9.16;100.00;101633.75;4883242;29;20542;-92
2023/03/21 00:36:09;;;;;;;22.67;9.98;;;;;;;9.15;100.00;101637.22;4939977;28;20043;-92
2023/03/21 00:41:31;;;;;;;21.75;10.13;;;;;;;9.10;100.00;101638.09;4935174;28;20039;-93
2023/03/21 00:44:12;;;;;;;22.77;10.75;;;;;;;9.19;100.00;101641.53;4938178;28;20027;-93
2023/03/21 00:46:40;;;;;;;23.27;9.90;;;;;;;9.01;100.00;101620.03;4938617;28;20032;-93
2023/03/21 00:49:19;;;;;;;21.20;10.27;;;;;;;9.02;100.00;101606.25;4953299;28;20073;-93
2023/03/21 00:51:53;;;;;;;21.35;10.30;;;;;;;9.08;100.00;101618.28;4943576;29;20027;-93
2023/03/21 00:54:20;;;;;;;21.55;10.45;;;;;;;9.09;100.00;101617.41;4938646;29;20412;-93
2023/03/21 00:56:53;;;;;;;23.50;10.65;;;;;;;9.03;100.00;101602.78;4953234;28;20035;-94
2023/03/21 00:59:28;;;;;;;23.95;10.27;;;;;;;9.06;100.00;101618.31;4938028;28;20451;-92
2023/03/21 01:02:06;;;;;;;20.02;10.85;;;;;;;9.06;100.00;101602.78;4952247;28;20495;-94
2023/03/21 01:04:36;;;;;;;23.13;10.75;;;;;;;9.15;100.00;101617.38;4937155;29;20287;-92
2023/03/21 01:07:10;;;;;;;24.83;10.98;;;;;;;9.05;100.00;101606.25;4938553;28;20031;-92
2023/03/21 01:09:36;;;;;;;18.27;10.13;;;;;;;8.99;100.00;101585.59;4937111;28;20039;-92
2023/03/21 01:12:07;;;;;;;20.42;9.88;;;;;;;9.06;100.00;101594.19;4937822;28;20035;-92
2023/03/21 01:14:41;;;;;;;22.42;9.50;;;;;;;9.05;100.00;101593.31;4939062;28;20396;-92
2023/03/21 01:17:10;;;;;;;23.25;11.13;;;;;;;9.00;100.00;101581.28;4937487;29;20513;-93
2023/03/21 01:19:47;;;;;;;22.65;10.57;;;;;;;9.00;100.00;101578.69;4944170;29;20028;-92
2023/03/21 01:22:16;;;;;;;20.65;9.40;;;;;;;9.01;100.00;101576.06;4942784;29;20110;-92
2023/03/21 01:24:44;;;;;;;20.73;9.00;;;;;;;9.06;100.00;101579.53;4943168;29;20190;-92
2023/03/21 01:27:12;;;;;;;22.50;9.07;;;;;;;9.09;100.00;101581.22;4950687;28;20632;-92
2023/03/21 01:29:39;;;;;;;19.02;9.32;;;;;;;9.05;100.00;101570.03;4940843;29;20037;-93
2023/03/21 01:32:14;;;;;;;22.95;9.13;;;;;;;9.06;100.00;101563.16;4951651;28;20422;-93
2023/03/21 01:34:56;;;;;;;21.08;8.73;;;;;;;9.08;100.00;101570.00;4937279;28;20145;-93
2023/03/21 01:37:26;;;;;;;24.02;9.23;;;;;;;9.16;100.00;101577.72;4938805;28;21563;-92
2023/03/21 01:40:16;;;;;;;24.38;9.13;;;;;;;9.05;100.00;101554.53;4943750;29;20031;-92
2023/03/21 01:42:57;;;;;;;19.70;8.88;;;;;;;9.07;100.00;101551.94;4941178;29;20440;-92
2023/03/21 01:46:05;;;;;;;18.23;9.35;;;;;;;9.23;100.00;101566.47;4940456;29;20031;-92
2023/03/21 01:48:41;;;;;;;21.48;8.63;;;;;;;9.08;100.00;101541.56;4954778;28;20042;-92
2023/03/21 01:51:20;;;;;;;22.42;8.50;;;;;;;9.21;100.00;101564.78;4938814;28;20076;-92
2023/03/21 01:53:59;;;;;;;17.83;8.45;;;;;;;9.12;100.00;101550.19;4937418;28;20039;-92
2023/03/21 01:56:35;;;;;;;22.48;9.05;;;;;;;9.13;100.00;101549.31;4954718;28;20110;-92
2023/03/21 01:59:40;;;;;;;21.67;8.65;;;;;;;9.04;100.00;101532.13;4936640;28;20046;-93
2023/03/21 02:02:14;;;;;;;20.10;8.70;;;;;;;9.09;100.00;101537.25;4936586;28;20485;-92
2023/03/21 02:04:54;;;;;;;19.02;8.48;;;;;;;9.02;100.00;101525.22;4937011;28;20038;-92
2023/03/21 02:07:34;;;;;;;17.98;8.35;;;;;;;9.06;100.00;101534.69;4940880;29;20123;-93
2023/03/21 02:10:09;;;;;;;18.17;8.18;;;;;;;9.16;100.00;101549.28;4940919;29;20126;-93
2023/03/21 02:12:40;;;;;;;15.43;8.02;;;;;;;9.05;100.00;101531.25;4943643;29;20034;-93
2023/03/21 02:15:13;;;;;;;16.58;8.02;;;;;;;9.13;100.00;101540.69;4943519;29;20034;-93
2023/03/21 02:17:57;;;;;;;18.08;8.02;;;;;;;9.00;100.00;101519.22;4957598;28;20118;-92
2023/03/21 02:20:40;;;;;;;;;;;;;;;;;;;;;
2023/03/21 02:23:31;;;;;;;20.05;8.48;;;;;;;9.12;100.00;101532.06;4943218;28;21099;-93
2023/03/21 02:26:27;;;;;;;14.40;7.55;;;;;;;9.12;100.00;101532.06;4956110;28;20030;-93
2023/03/21 02:29:00;;;;;;;15.80;7.50;;;;;;;9.11;100.00;101523.44;4942475;29;20031;-93
2023/03/21 02:32:05;;;;;;;16.35;7.75;;;;;;;9.14;100.00;101525.16;4957145;28;20035;-92
2023/03/21 02:35:18;;;;;;;18.95;7.88;;;;;;;9.14;100.00;101521.72;4956682;28;20135;-93
2023/03/21 02:38:10;;;;;;;18.88;8.20;;;;;;;8.99;100.00;101491.66;4873321;28;20044;-93
2023/03/21 02:40:57;;;;;;;17.38;7.60;;;;;;;9.09;100.00;101508.81;4956414;28;20779;-93
2023/03/21 02:43:38;;;;;;;19.30;7.60;;;;;;;9.02;100.00;101496.78;4957379;28;20369;-93
2023/03/21 02:46:20;;;;;;;17.63;7.72;;;;;;;8.98;100.00;101488.19;4956459;28;20074;-92
2023/03/21 02:49:14;;;;;;;17.05;7.43;;;;;;;9.14;100.00;101508.78;4947715;29;20563;-93
2023/03/21 02:51:59;;;;;;;17.30;7.63;;;;;;;9.14;100.00;101514.81;4942288;28;20026;-93
2023/03/21 02:54:30;;;;;;;18.65;7.60;;;;;;;9.06;100.00;101501.94;4957836;28;20182;-93
2023/03/21 02:57:00;;;;;;;15.65;7.05;;;;;;;9.04;100.00;101505.41;4940568;29;20227;-93
2023/03/21 02:59:46;;;;;;;;;;;;;;;;;;;;;
2023/03/21 03:02:27;;;;;;;15.48;7.47;;;;;;;9.10;100.00;101511.38;4942211;29;20023;-93
2023/03/21 03:04:55;;;;;;;16.60;8.02;;;;;;;8.92;100.00;101475.31;4942769;29;20031;-92
2023/03/21 03:07:41;;;;;;;19.02;7.80;;;;;;;9.06;100.00;101503.66;4941127;28;20543;-93
2023/03/21 03:14:25;;;;;;;;;;;;;;;;;;;;;
2023/03/21 03:17:06;;;;;;;18.17;8.27;;;;;;;8.99;100.00;101489.06;4940624;28;20028;-94
2023/03/21 03:19:52;;;;;;;18.13;8.45;;;;;;;8.86;100.00;101477.94;4940359;29;20147;-93
2023/03/21 03:22:39;;;;;;;17.40;8.15;;;;;;;8.79;100.00;101472.81;4940166;29;20023;-93
2023/03/21 03:25:14;;;;;;;17.95;8.18;;;;;;;8.77;100.00;101477.13;4953124;28;20039;-93
2023/03/21 03:27:50;;;;;;;16.92;8.30;;;;;;;8.66;100.00;101470.31;4955954;28;20141;-92
2023/03/21 03:30:39;;;;;;;19.52;8.13;;;;;;;8.66;100.00;101470.31;4942412;29;20027;-94
2023/03/21 03:33:09;;;;;;;17.70;8.15;;;;;;;8.67;100.00;101476.31;4935009;29;20074;-94
2023/03/21 03:35:35;;;;;;;18.95;8.32;;;;;;;8.64;100.00;101463.44;4941718;29;20046;-93
2023/03/21 03:38:16;;;;;;;21.98;8.85;;;;;;;8.71;100.00;101476.31;4955172;28;20122;-92
2023/03/21 03:41:07;;;;;;;18.60;8.63;;;;;;;8.64;100.00;101466.00;4941394;29;20031;-92
2023/03/21 03:43:52;;;;;;;21.15;8.85;;;;;;;8.73;100.00;101473.72;4955640;28;20050;-92
2023/03/21 03:46:59;;;;;;;14.80;7.68;;;;;;;8.75;100.00;101474.56;4944057;29;20050;-94
2023/03/21 03:50:11;;;;;;;18.40;7.82;;;;;;;8.63;100.00;101447.06;4955981;28;20121;-92
2023/03/21 03:52:52;;;;;;;19.50;8.15;;;;;;;8.68;100.00;101455.63;4927534;29;20046;-93
2023/03/21 03:55:41;;;;;;;19.50;8.43;;;;;;;8.64;100.00;101446.19;4940079;29;20514;-91
2023/03/21 03:58:17;;;;;;;17.75;7.85;;;;;;;8.63;100.00;101447.06;4955992;28;20077;-92
2023/03/21 04:04:08;;;;;;;17.88;7.43;;;;;;;8.71;100.00;101460.81;4940965;29;20436;-93
2023/03/21 04:06:34;;;;;;;19.20;7.65;;;;;;;8.72;100.00;101448.75;4940586;28;20023;-93
2023/03/21 04:12:25;;;;;;;16.23;7.60;;;;;;;8.69;100.00;101441.84;4939766;29;20039;-94
2023/03/21 04:14:54;;;;;;;17.95;7.88;;;;;;;8.73;100.00;101450.47;4937485;29;20054;-92
2023/03/21 04:17:24;;;;;;;19.75;7.80;;;;;;;8.79;100.00;101462.47;4941496;29;20032;-93
2023/03/21 04:20:05;;;;;;;18.40;8.13;;;;;;;8.73;100.00;101454.78;4965183;28;20039;-94
2023/03/21 04:22:48;;;;;;;18.50;7.72;;;;;;;8.70;100.00;101434.97;4944099;28;20039;-93
2023/03/21 04:25:14;;;;;;;19.08;8.23;;;;;;;8.64;100.00;101425.53;4942243;29;20038;-92
2023/03/21 04:27:50;;;;;;;;;;;;;;;;;;;;;
2023/03/21 04:30:15;;;;;;;17.98;7.93;;;;;;;8.63;100.00;101422.94;4943164;29;20031;-92
2023/03/21 04:32:46;;;;;;;17.95;8.30;;;;;;;8.71;100.00;101436.69;4954923;28;20034;-92
2023/03/21 04:35:27;;;;;;;17.15;8.38;;;;;;;8.68;100.00;101432.38;4939003;29;20043;-91
2023/03/21 04:37:55;;;;;;;19.45;8.50;;;;;;;8.68;100.00;101429.78;4955045;28;20098;-92
2023/03/21 04:40:26;;;;;;;19.35;8.32;;;;;;;8.60;100.00;101407.44;4940618;29;20035;-92
2023/03/21 04:42:54;;;;;;;19.70;7.93;;;;;;;8.64;100.00;101417.78;4938684;29;20030;-92
2023/03/21 04:45:22;;;;;;;17.48;8.18;;;;;;;8.65;100.00;101418.63;4953673;28;20038;-93
2023/03/21 04:47:54;;;;;;;20.23;8.65;;;;;;;8.64;100.00;101422.94;4955481;28;20294;-92
2023/03/21 04:50:32;;;;;;;20.67;9.07;;;;;;;8.60;100.00;101418.66;4954324;28;20046;-92
2023/03/21 04:52:58;;;;;;;20.33;8.60;;;;;;;8.60;100.00;101407.44;4955376;28;20562;-92
2023/03/21 04:55:28;;;;;;;18.65;8.43;;;;;;;8.64;100.00;101420.34;4940003;29;20034;-92
2023/03/21 04:58:06;;;;;;;;;;;;;;;;;;;;;
2023/03/21 05:00:44;;;;;;;21.05;8.70;;;;;;;8.65;100.00;101409.16;4939071;29;20042;-92
2023/03/21 05:03:23;;;;;;;21.60;8.57;;;;;;;8.73;100.00;101422.03;4954644;28;20029;-93
2023/03/21 05:06:19;;;;;;;18.42;8.50;;;;;;;8.67;100.00;101411.72;4940134;29;20065;-93
2023/03/21 05:08:53;;;;;;;20.67;8.82;;;;;;;8.68;100.00;101403.09;4941419;29;20035;-92
2023/03/21 05:11:29;;;;;;;23.03;8.63;;;;;;;8.60;100.00;101397.09;4953564;28;20032;-92
2023/03/21 05:13:55;;;;;;;23.75;9.38;;;;;;;8.64;100.00;101404.84;4954188;28;20487;-92
2023/03/21 05:16:29;;;;;;;18.02;8.63;;;;;;;8.75;100.00;101409.94;4954316;28;20151;-91
2023/03/21 05:19:24;;;;;;;;;;;;;;;8.79;100.00;101419.41;4938472;28;20075;-93
2023/03/21 05:22:28;;;;;;;;;;;;;;;;;;;;;
2023/03/21 05:25:08;;;;;;;23.05;9.10;;;;;;;8.76;100.00;101414.25;4939062;29;20035;-93
2023/03/21 05:27:54;;;;;;;18.80;8.73;;;;;;;8.68;100.00;101403.94;4936379;29;20567;-92
2023/03/21 05:30:39;;;;;;;;;;;;;;;;;;;;;
2023/03/21 05:33:31;;;;;;;20.17;8.98;;;;;;;8.68;100.00;101398.78;4940905;29;20045;-93
2023/03/21 05:35:59;;;;;;;15.68;8.20;;;;;;;8.67;100.00;101403.97;4941532;28;20086;-93
2023/03/21 05:38:50;;;;;;;21.42;8.98;;;;;;;8.68;100.00;101398.78;4942050;29;20036;-94
2023/03/21 05:41:17;;;;;;;17.35;8.38;;;;;;;8.68;100.00;101393.63;4940177;28;20034;-95
2023/03/21 05:43:45;;;;;;;18.77;8.15;;;;;;;8.75;100.00;101404.75;4953069;28;20619;-93
2023/03/21 05:47:08;;;;;;;;;;;;;;;;;;;;;
2023/03/21 05:50:05;;;;;;;20.08;8.18;;;;;;;8.75;100.00;101396.16;4939759;29;20206;-94
2023/03/21 05:55:33;;;;;;;18.35;8.35;;;;;;;8.68;100.00;101375.53;4940652;29;20083;-93
2023/03/21 05:58:15;;;;;;;18.23;8.35;;;;;;;8.78;100.00;101388.38;4954026;28;20055;-94
2023/03/21 06:01:08;;;;;;;;;;;;;;;;;;;;;
2023/03/21 06:03:54;;;;;;;22.13;8.05;;;;;;;8.76;100.00;101390.13;4938849;29;20369;-94
2023/03/21 06:06:20;;;;;;;17.08;7.95;;;;;;;8.79;100.00;101384.94;4950647;28;20065;-92
2023/03/21 06:08:48;;;;;;;18.30;8.07;;;;;;;8.82;100.00;101384.91;4938331;29;20047;-94
2023/03/21 06:11:23;;;;;;;20.48;8.52;;;;;;;8.77;100.00;101378.91;4937062;29;20023;-92
2023/03/21 06:14:18;;;;;;;18.25;8.38;;;;;;;8.82;100.00;101377.13;4938647;28;20039;-93
2023/03/21 06:16:52;;;;;;;18.70;7.95;;;;;;;8.89;100.00;101391.75;4937782;29;20566;-94
2023/03/21 06:19:36;;;;;;;;;;;;;;;;;;;;;
2023/03/21 06:22:04;;;;;;;21.20;8.25;;;;;;;8.99;100.00;101398.56;4939204;28;20358;-94
2023/03/21 06:24:30;;;;;;;21.52;8.82;;;;;;;8.90;100.00;101372.78;4941308;29;20031;-93
2023/03/21 06:27:07;;;;;;;16.95;8.27;;;;;;;8.93;100.00;101383.97;4937793;29;20094;-93
2023/03/21 06:29:40;;;;;;;19.75;8.00;;;;;;;9.04;100.00;101402.81;4954275;28;20031;-93
2023/03/21 06:32:27;;;;;;;20.70;8.18;;;;;;;9.07;100.00;101400.22;4940192;29;20039;-93
2023/03/21 06:35:03;;;;;;;21.88;7.78;;;;;;;9.10;100.00;101401.91;4938211;29;20042;-94
2023/03/21 06:37:51;;;;;;;19.90;8.40;;;;;;;9.14;100.00;101392.41;4954671;28;20041;-94
2023/03/21 06:40:51;;;;;;;17.90;8.18;;;;;;;9.13;100.00;101391.53;4953166;28;20040;-93
2023/03/21 06:43:26;;;;;;;18.42;7.78;;;;;;;9.23;100.00;101395.75;4938948;28;20027;-94
2023/03/21 06:45:56;;;;;;;14.27;7.75;;;;;;;9.35;100.00;101412.88;4940148;29;20078;-94
2023/03/21 06:48:43;;;;;;;18.45;7.55;;;;;;;9.28;100.00;101388.78;4952351;28;20472;-93
2023/03/21 06:51:29;;;;;;;19.13;8.13;;;;;;;9.35;100.00;101395.63;4956513;28;20369;-94
2023/03/21 06:54:10;;;;;;;16.17;7.75;;;;;;;9.43;100.00;101399.00;4946165;28;20138;-94
2023/03/21 06:56:38;;;;;;;17.08;7.32;;;;;;;9.54;100.00;101414.44;4940436;28;20039;-95
2023/03/21 06:59:26;;;;;;;17.52;7.72;;;;;;;9.42;100.00;101391.25;4940604;29;20111;-93
2023/03/21 07:02:10;;;;;;;;;;;;;;;;;;;;;
2023/03/21 07:04:57;;;;;;;;;;;;;;;;;;;;;
2023/03/21 07:07:32;;;;;;;16.88;6.85;;;;;;;9.49;100.00;101411.88;4942758;29;20023;-93
2023/03/21 07:10:16;;;;;;;15.98;7.38;;;;;;;9.43;100.00;101403.31;4941691;29;20027;-94
2023/03/21 07:13:39;;;;;;;19.35;7.75;;;;;;;9.41;100.00;101405.09;4942005;29;20031;-94
2023/03/21 07:16:08;;;;;;;16.50;7.32;;;;;;;9.34;100.00;101396.53;4941126;28;20042;-93
2023/03/21 07:18:37;;;;;;;18.40;7.47;;;;;;;9.34;100.00;101403.41;4945872;29;20030;-94
2023/03/21 07:21:09;;;;;;;17.00;7.55;;;;;;;9.37;100.00;101414.59;4941642;29;20106;-93
2023/03/21 07:23:37;;;;;;;16.70;7.28;;;;;;;9.41;100.00;101429.22;4941396;29;20391;-93
2023/03/21 07:26:05;;;;;;;17.02;7.68;;;;;;;9.31;100.00;101418.97;4941700;29;20400;-93
2023/03/21 07:28:42;;;;;;;19.50;7.65;;;;;;;9.34;100.00;101424.13;4957122;28;20440;-92
2023/03/21 07:31:16;;;;;;;14.18;7.18;;;;;;;9.31;100.00;101416.38;4943160;29;20070;-92
2023/03/21 07:33:42;;;;;;;17.03;7.60;;;;;;;9.43;100.00;101432.63;4956655;28;20074;-93
2023/03/21 07:36:14;;;;;;;21.40;7.75;;;;;;;9.42;100.00;101423.16;4939759;28;20070;-93
2023/03/21 07:38:41;;;;;;;19.25;7.57;;;;;;;9.54;100.00;101436.88;4943019;29;20431;-93
2023/03/21 07:41:07;;;;;;;15.32;7.38;;;;;;;9.38;100.00;101418.03;4941559;29;20429;-93
2023/03/21 07:43:42;;;;;;;16.85;7.10;;;;;;;9.44;100.00;101412.78;4943219;29;20639;-93
2023/03/21 07:46:08;;;;;;;17.05;7.55;;;;;;;9.49;100.00;101431.72;4945731;29;20035;-92
2023/03/21 07:48:34;;;;;;;20.08;7.72;;;;;;;9.46;100.00;101418.81;4944061;28;20101;-94
2023/03/21 07:51:01;;;;;;;16.45;7.05;;;;;;;9.47;100.00;101424.00;4957462;28;20034;-92
2023/03/21 07:53:35;;;;;;;18.25;7.55;;;;;;;9.53;100.00;101441.19;4941572;29;20024;-92
2023/03/21 07:56:05;;;;;;;15.15;7.15;;;;;;;9.46;100.00;101416.22;4942073;29;20055;-93
2023/03/21 07:58:33;;;;;;;18.33;7.50;;;;;;;9.49;100.00;101411.88;4944669;29;20112;-92
2023/03/21 08:01:27;;;;;;;19.40;7.72;;;;;;;9.50;100.00;101404.97;4955633;28;20603;-94
2023/03/21 08:03:52;;;;;;;19.90;7.28;;;;;;;9.62;100.00;101414.34;4943453;28;20032;-93
2023/03/21 08:06:26;;;;;;;17.55;7.80;;;;;;;9.73;100.00;101422.84;4958635;28;20030;-93
2023/03/21 08:09:11;;;;;;;20.48;8.02;;;;;;;9.68;100.00;101409.13;4941999;29;20031;-94
2023/03/21 08:11:42;;;;;;;17.63;7.88;;;;;;;9.73;100.00;101407.31;4958257;28;20043;-93
2023/03/21 08:14:38;;;;;;;22.02;8.57;;;;;;;9.82;100.00;101410.69;4957827;28;20058;-94
2023/03/21 08:17:10;;;;;;;20.70;8.63;;;;;;;9.73;100.00;101378.84;4955509;28;20042;-94
2023/03/21 08:20:06;;;;;;;18.75;8.90;;;;;;;9.80;100.00;101386.53;4941540;28;20534;-94
2023/03/21 08:22:58;;;;;;;19.45;8.88;;;;;;;9.91;100.00;101401.91;4945583;29;20978;-94
2023/03/21 08:25:36;;;;;;;;;;;;;;;;;;;;;
2023/03/21 08:28:27;;;;;;;20.67;9.43;;;;;;;10.07;100.00;101363.75;4943508;29;20019;-94
2023/03/21 08:30:56;;;;;;;21.83;9.90;;;;;;;10.12;100.00;101356.75;4943960;29;20110;-94
2023/03/21 08:33:25;;;;;;;19.38;9.95;;;;;;;10.28;100.00;101356.56;4941316;28;21503;-94
2023/03/21 08:36:06;;;;;;;29.08;9.70;;;;;;;10.44;100.00;101358.94;4956511;28;20054;-93
2023/03/21 08:38:33;;;;;;;20.58;8.73;;;;;;;10.54;100.00;101360.50;4942123;29;20043;-92
2023/03/21 08:40:59;;;;;;;20.83;8.93;;;;;;;10.58;100.00;101352.66;4941660;28;20347;-92
2023/03/21 08:43:26;;;;;;;18.35;8.98;;;;;;;10.61;100.00;101352.63;4940930;29;20042;-92
2023/03/21 08:45:51;;;;;;;19.25;8.48;;;;;;;10.59;100.00;101348.31;4940480;29;20419;-92
2023/03/21 08:48:17;;;;;;;16.55;8.23;;;;;;;10.68;100.00;101366.34;4954063;28;20091;-92
2023/03/21 08:50:43;;;;;;;19.88;8.63;;;;;;;10.67;100.00;101372.41;4954667;28;21438;-92
2023/03/21 08:53:09;;;;;;;19.25;8.38;;;;;;;10.61;100.00;101357.81;4942813;29;20118;-92
2023/03/21 08:55:34;;;;;;;20.70;8.52;;;;;;;10.53;100.00;101357.06;4940454;29;20032;-92
2023/03/21 08:58:00;;;;;;;19.02;8.23;;;;;;;10.58;100.00;101367.34;4954199;28;20031;-93
2023/03/21 09:00:27;;;;;;;18.85;8.10;;;;;;;10.53;100.00;101358.78;4939439;29;20027;-92
2023/03/21 09:02:53;;;;;;;18.55;8.27;;;;;;;10.55;100.00;101346.66;4953919;28;20030;-92
2023/03/21 09:05:19;;;;;;;16.85;7.85;;;;;;;10.60;100.00;101347.44;4939223;29;20115;-92
2023/03/21 09:07:45;;;;;;;18.30;7.78;;;;;;;10.60;100.00;101337.94;4940743;29;20031;-92
2023/03/21 09:10:13;;;;;;;18.05;7.70;;;;;;;10.66;100.00;101345.63;4939000;29;20082;-92
2023/03/21 09:12:40;;;;;;;15.55;7.07;;;;;;;10.68;100.00;101340.41;4939924;29;20476;-93
2023/03/21 09:15:07;;;;;;;19.95;7.55;;;;;;;10.55;100.00;101326.78;4938165;28;20039;-92
2023/03/21 09:17:32;;;;;;;17.55;7.18;;;;;;;10.61;100.00;101341.38;4940304;29;20038;-92
2023/03/21 09:19:59;;;;;;;14.40;7.63;;;;;;;10.80;100.00;101352.31;4954352;28;20034;-92
2023/03/21 09:22:26;;;;;;;19.70;7.10;;;;;;;10.85;100.00;101343.56;4940058;29;20396;-92
2023/03/21 09:24:52;;;;;;;16.23;7.00;;;;;;;10.95;100.00;101326.13;4940512;29;20046;-92
2023/03/21 09:27:21;;;;;;;21.80;7.38;;;;;;;11.08;100.00;101325.88;4939341;28;20424;-91
2023/03/21 09:29:50;;;;;;;13.40;7.15;;;;;;;11.35;100.00;101337.47;4939649;29;20054;-92
2023/03/21 09:32:17;;;;;;;13.25;7.18;;;;;;;11.47;100.00;101326.00;4937527;28;20110;-92
2023/03/21 09:34:43;;;;;;;15.00;7.15;;;;;;;11.64;100.00;101326.53;4938803;29;20058;-92
2023/03/21 09:37:10;;;;;;;15.15;7.28;;;;;;;11.68;100.00;101325.56;4938832;29;20034;-91
2023/03/21 09:39:36;;;;;;;13.77;7.22;;;;;;;11.68;100.00;101325.56;4942664;29;20019;-92
2023/03/21 09:42:35;;;;;;;16.65;7.15;;;;;;;11.79;100.00;101343.59;4939525;29;20411;-92
2023/03/21 09:45:07;;;;;;;16.83;6.82;;;;;;;11.73;100.00;101318.56;4938393;28;20047;-92
2023/03/21 09:47:44;;;;;;;15.98;7.03;;;;;;;11.79;100.00;101334.06;4953644;28;20093;-92
2023/03/21 09:50:20;;;;;;;13.23;6.68;;;;;;;11.82;100.00;101320.13;4942110;28;20455;-91
2023/03/21 09:53:22;;;;;;;13.10;6.38;;;;;;;11.77;100.00;101314.19;4953626;28;20066;-92
2023/03/21 09:55:48;;;;;;;14.43;6.68;;;;;;;11.71;100.00;101304.75;4954189;28;20031;-91
2023/03/21 09:58:28;;;;;;;15.93;6.80;;;;;;;11.75;100.00;101300.38;4939088;29;20031;-92
2023/03/21 10:01:21;;;;;;;14.23;6.90;;;;;;;11.93;100.00;101304.31;4938781;29;20031;-92
2023/03/21 10:03:49;;;;;;;15.02;7.10;;;;;;;12.03;100.00;101308.41;4938646;28;20110;-92
2023/03/21 10:06:15;;;;;;;17.20;6.57;;;;;;;11.92;100.00;101287.88;4937818;29;20031;-91
2023/03/21 10:08:46;;;;;;;15.40;6.20;;;;;;;12.07;100.00;101312.69;4937984;29;20070;-91
2023/03/21 10:11:20;;;;;;;12.65;6.55;;;;;;;12.08;100.00;101289.22;4937757;29;20023;-92
2023/03/21 10:13:59;;;;;;;12.68;6.10;;;;;;;12.23;100.00;101298.44;4938510;28;20040;-91
2023/03/21 10:16:29;;;;;;;13.45;6.18;;;;;;;12.29;100.00;101293.09;4939554;28;20023;-90
2023/03/21 10:18:55;;;;;;;15.35;6.00;;;;;;;12.23;100.00;101280.22;4936388;28;20118;-92
2023/03/21 10:21:23;;;;;;;14.63;5.90;;;;;;;12.21;100.00;101280.25;4939195;28;20019;-92
2023/03/21 10:23:51;;;;;;;13.60;6.43;;;;;;;12.42;100.00;101304.06;4939268;29;20035;-91
2023/03/21 10:26:19;;;;;;;14.30;6.28;;;;;;;12.39;100.00;101273.78;4938794;28;20038;-92
2023/03/21 10:28:48;;;;;;;11.93;6.20;;;;;;;12.38;100.00;101281.63;4946613;29;20019;-92
2023/03/21 10:31:20;;;;;;;9.57;5.88;;;;;;;12.43;100.00;101282.34;4942271;29;20036;-92
2023/03/21 10:33:48;;;;;;;13.00;6.03;;;;;;;12.47;100.00;101284.00;4941255;28;20110;-93
2023/03/21 10:36:40;;;;;;;12.77;6.00;;;;;;;12.61;100.00;101290.59;4943005;29;20050;-92
2023/03/21 10:39:17;;;;;;;13.15;5.80;;;;;;;12.59;100.00;101271.56;4941625;28;20099;-92
2023/03/21 10:41:43;;;;;;;11.30;6.38;;;;;;;12.71;100.00;101275.56;4943122;29;20871;-92
2023/03/21 10:44:16;;;;;;;12.27;6.10;;;;;;;12.93;100.00;101286.28;4957629;28;20027;-92
2023/03/21 10:46:50;;;;;;;12.20;6.07;;;;;;;13.20;100.00;101285.59;4942830;29;20543;-93
2023/03/21 10:49:20;;;;;;;12.38;5.95;;;;;;;13.26;99.86;101263.72;4958035;28;20496;-92
2023/03/21 10:51:50;;;;;;;12.63;5.70;;;;;;;13.58;99.11;101281.88;4942134;29;20134;-92
2023/03/21 10:54:20;;;;;;;13.70;6.18;;;;;;;13.58;98.91;101261.03;4940471;29;20118;-93
2023/03/21 10:57:08;;;;;;;12.55;6.13;;;;;;;13.74;97.52;101283.16;4956836;28;20519;-92
2023/03/21 10:59:39;;;;;;;15.75;5.55;;;;;;;13.71;94.27;101290.22;4941177;28;20027;-92
2023/03/21 11:02:05;;;;;;;11.43;5.40;;;;;;;13.60;94.85;101261.88;4941540;28;20083;-92
2023/03/21 11:04:31;;;;;;;12.38;5.22;;;;;;;13.72;90.50;101284.94;4941678;28;20035;-92
2023/03/21 11:07:08;;;;;;;12.05;5.35;;;;;;;13.87;93.25;101283.63;4945381;29;20027;-92
2023/03/21 11:09:53;;;;;;;12.10;5.90;;;;;;;14.04;94.46;101276.16;4959236;28;20043;-92
2023/03/21 11:12:33;;;;;;;12.02;5.47;;;;;;;14.24;95.11;101276.41;4945453;29;20020;-92
2023/03/21 11:15:23;;;;;;;13.20;5.32;;;;;;;14.40;92.23;101278.53;4948479;28;20385;-92
2023/03/21 11:17:49;;;;;;;13.20;5.78;;;;;;;14.42;89.14;101261.06;4942414;28;20035;-93
2023/03/21 11:20:20;;;;;;;10.18;4.68;;;;;;;14.38;89.55;101255.13;4943662;29;20049;-93
2023/03/21 11:22:53;;;;;;;11.60;5.47;;;;;;;14.47;88.47;101243.50;4944026;29;20027;-93
2023/03/21 11:25:26;;;;;;;10.65;5.28;;;;;;;14.44;89.26;101251.44;4941187;28;20031;-91
2023/03/21 11:27:55;;;;;;;11.43;4.85;;;;;;;14.35;87.18;101254.31;4955978;28;20039;-92
2023/03/21 11:30:26;;;;;;;10.70;5.03;;;;;;;14.26;88.62;101245.06;4955757;28;20039;-91
2023/03/21 11:32:57;;;;;;;12.63;5.32;;;;;;;14.32;87.75;101252.69;4956404;28;20035;-92
2023/03/21 11:35:27;;;;;;;13.57;6.25;;;;;;;14.35;88.85;101243.88;4956709;28;20047;-92
2023/03/21 11:37:56;;;;;;;14.23;5.97;;;;;;;14.46;85.60;101262.69;4939279;28;20139;-91
2023/03/21 11:40:25;;;;;;;10.52;5.63;;;;;;;14.42;88.08;101250.63;4940815;29;20026;-91
2023/03/21 11:42:56;;;;;;;16.52;5.88;;;;;;;14.51;85.75;101256.41;4940351;29;20059;-92
2023/03/21 11:45:25;;;;;;;10.57;5.43;;;;;;;14.48;88.03;101245.22;4939961;28;20522;-93
2023/03/21 11:47:54;;;;;;;11.25;5.90;;;;;;;14.61;86.87;101241.28;4941509;29;20062;-92
2023/03/21 11:50:28;;;;;;;12.13;5.57;;;;;;;14.60;85.21;101226.56;4942064;28;20023;-92
2023/03/21 11:53:04;;;;;;;10.10;5.10;;;;;;;14.74;86.18;101258.22;4940458;28;20500;-92
2023/03/21 11:55:39;;;;;;;9.52;4.82;;;;;;;14.70;83.04;101241.00;4955474;28;20506;-92
2023/03/21 11:58:22;;;;;;;13.30;4.95;;;;;;;14.75;81.24;101259.94;4956143;28;20034;-93
2023/03/21 12:01:05;;;;;;;13.40;4.60;;;;;;;14.58;82.04;101228.38;4957603;28;20030;-92
2023/03/21 12:03:48;;;;;;;11.02;4.50;;;;;;;14.56;83.39;101230.16;4944838;29;20038;-93
2023/03/21 12:06:23;;;;;;;9.68;4.93;;;;;;;14.76;81.28;101240.78;4941259;29;20039;-92
2023/03/21 12:09:06;;;;;;;10.13;4.57;;;;;;;14.85;82.71;101223.94;4939085;28;20058;-92
2023/03/21 12:11:52;;;;;;;9.27;4.70;;;;;;;14.95;81.54;101213.13;4956294;28;20451;-92
2023/03/21 12:14:20;;;;;;;12.45;5.05;;;;;;;15.31;78.02;101237.03;4954431;28;20027;-94
2023/03/21 12:17:08;;;;;;;10.05;4.45;;;;;;;15.37;78.61;101239.44;4942603;29;20023;-92
2023/03/21 12:19:43;;;;;;;9.90;4.30;;;;;;;15.16;74.38;101236.75;4955225;28;20026;-92
2023/03/21 12:22:26;;;;;;;11.15;4.78;;;;;;;15.03;80.24;101218.06;4940276;28;20579;-92
2023/03/21 12:24:55;;;;;;;12.25;4.68;;;;;;;15.08;75.56;101210.09;4938590;28;20051;-91
2023/03/21 12:27:52;;;;;;;10.95;4.78;;;;;;;15.15;77.28;101193.28;4954288;28;20028;-91
2023/03/21 12:30:36;;;;;;;10.15;5.10;;;;;;;15.35;79.06;101207.28;4940245;29;20027;-91
2023/03/21 12:33:43;;;;;;;10.25;4.38;;;;;;;15.35;76.80;101201.22;4956025;28;20035;-91
2023/03/21 12:36:33;;;;;;;10.55;4.47;;;;;;;15.42;74.00;101200.91;4944037;29;20043;-91
2023/03/21 12:39:28;;;;;;;9.75;4.40;;;;;;;15.53;76.34;101179.66;4940320;29;20042;-91